sensor_id;sensor_type;location;lat;lon;timestamp;P1;durP1;ratioP1;P2;durP2;ratioP2
20306;SDS011;10312;52.434;13.206;2024-03-08T00:02:20;30.63;;;16.50;;
20306;SDS011;10312;52.434;13.206;2024-03-08T00:04:47;28.73;;;16.15;;
20306;SDS011;10312;52.434;13.206;2024-03-08T00:07:14;27.45;;;14.65;;
20306;SDS011;10312;52.434;13.206;2024-03-08T00:09:41;25.92;;;15.40;;
20306;SDS011;10312;52.434;13.206;2024-03-08T00:12:08;27.65;;;15.43;;
20306;SDS011;10312;52.434;13.206;2024-03-08T00:14:35;26.02;;;14.93;;
20306;SDS011;10312;52.434;13.206;2024-03-08T00:17:04;31.42;;;15.68;;
20306;SDS011;10312;52.434;13.206;2024-03-08T00:19:31;26.42;;;14.35;;
20306;SDS011;10312;52.434;13.206;2024-03-08T00:21:58;26.77;;;14.50;;
20306;SDS011;10312;52.434;13.206;2024-03-08T00:24:25;24.60;;;14.85;;
20306;SDS011;10312;52.434;13.206;2024-03-08T00:26:52;29.83;;;15.48;;
20306;SDS011;10312;52.434;13.206;2024-03-08T00:29:20;27.70;;;14.20;;
20306;SDS011;10312;52.434;13.206;2024-03-08T00:31:49;27.52;;;14.57;;
20306;SDS011;10312;52.434;13.206;2024-03-08T00:34:16;27.05;;;15.13;;
20306;SDS011;10312;52.434;13.206;2024-03-08T00:36:43;25.23;;;14.75;;
20306;SDS011;10312;52.434;13.206;2024-03-08T00:39:10;28.38;;;14.77;;
20306;SDS011;10312;52.434;13.206;2024-03-08T00:41:38;26.58;;;15.07;;
20306;SDS011;10312;52.434;13.206;2024-03-08T00:44:05;29.20;;;15.45;;
20306;SDS011;10312;52.434;13.206;2024-03-08T00:46:32;25.15;;;14.25;;
20306;SDS011;10312;52.434;13.206;2024-03-08T00:49:00;27.63;;;15.93;;
20306;SDS011;10312;52.434;13.206;2024-03-08T00:51:27;26.73;;;14.85;;
20306;SDS011;10312;52.434;13.206;2024-03-08T00:53:54;26.20;;;14.63;;
20306;SDS011;10312;52.434;13.206;2024-03-08T00:56:21;26.63;;;15.90;;
20306;SDS011;10312;52.434;13.206;2024-03-08T00:58:48;24.17;;;14.73;;
20306;SDS011;10312;52.434;13.206;2024-03-08T01:01:15;28.30;;;16.02;;
20306;SDS011;10312;52.434;13.206;2024-03-08T01:03:45;25.27;;;14.60;;
20306;SDS011;10312;52.434;13.206;2024-03-08T01:06:12;26.50;;;14.35;;
20306;SDS011;10312;52.434;13.206;2024-03-08T01:08:39;28.08;;;15.05;;
20306;SDS011;10312;52.434;13.206;2024-03-08T01:11:08;26.70;;;15.15;;
20306;SDS011;10312;52.434;13.206;2024-03-08T01:13:35;25.73;;;15.02;;
20306;SDS011;10312;52.434;13.206;2024-03-08T01:16:03;28.88;;;14.93;;
20306;SDS011;10312;52.434;13.206;2024-03-08T01:18:30;30.80;;;16.73;;
20306;SDS011;10312;52.434;13.206;2024-03-08T01:20:58;31.17;;;14.98;;
20306;SDS011;10312;52.434;13.206;2024-03-08T01:23:25;28.52;;;16.08;;
20306;SDS011;10312;52.434;13.206;2024-03-08T01:25:52;28.80;;;15.38;;
20306;SDS011;10312;52.434;13.206;2024-03-08T01:28:24;27.58;;;15.82;;
20306;SDS011;10312;52.434;13.206;2024-03-08T01:30:52;29.50;;;15.77;;
20306;SDS011;10312;52.434;13.206;2024-03-08T01:33:25;31.65;;;16.45;;
20306;SDS011;10312;52.434;13.206;2024-03-08T01:35:53;30.25;;;16.05;;
20306;SDS011;10312;52.434;13.206;2024-03-08T01:38:20;25.13;;;15.07;;
20306;SDS011;10312;52.434;13.206;2024-03-08T01:40:50;29.27;;;16.02;;
20306;SDS011;10312;52.434;13.206;2024-03-08T01:43:18;28.65;;;16.13;;
20306;SDS011;10312;52.434;13.206;2024-03-08T01:45:57;30.65;;;16.35;;
20306;SDS011;10312;52.434;13.206;2024-03-08T01:48:26;30.40;;;16.92;;
20306;SDS011;10312;52.434;13.206;2024-03-08T01:50:55;28.70;;;15.18;;
20306;SDS011;10312;52.434;13.206;2024-03-08T01:53:24;32.30;;;17.15;;
20306;SDS011;10312;52.434;13.206;2024-03-08T01:55:51;30.60;;;16.35;;
20306;SDS011;10312;52.434;13.206;2024-03-08T01:58:22;31.10;;;16.60;;
20306;SDS011;10312;52.434;13.206;2024-03-08T02:00:49;29.70;;;16.38;;
20306;SDS011;10312;52.434;13.206;2024-03-08T02:03:16;30.00;;;15.95;;
20306;SDS011;10312;52.434;13.206;2024-03-08T02:05:43;26.58;;;14.85;;
20306;SDS011;10312;52.434;13.206;2024-03-08T02:08:10;30.77;;;17.42;;
20306;SDS011;10312;52.434;13.206;2024-03-08T02:10:41;30.25;;;16.15;;
20306;SDS011;10312;52.434;13.206;2024-03-08T02:13:08;30.77;;;16.88;;
20306;SDS011;10312;52.434;13.206;2024-03-08T02:18:25;27.08;;;15.10;;
20306;SDS011;10312;52.434;13.206;2024-03-08T02:20:52;30.52;;;16.15;;
20306;SDS011;10312;52.434;13.206;2024-03-08T02:23:20;31.17;;;16.23;;
20306;SDS011;10312;52.434;13.206;2024-03-08T02:25:47;27.27;;;15.80;;
20306;SDS011;10312;52.434;13.206;2024-03-08T02:28:14;29.98;;;16.08;;
20306;SDS011;10312;52.434;13.206;2024-03-08T02:30:41;27.77;;;15.55;;
20306;SDS011;10312;52.434;13.206;2024-03-08T02:33:08;29.52;;;15.95;;
20306;SDS011;10312;52.434;13.206;2024-03-08T02:35:36;29.92;;;16.17;;
20306;SDS011;10312;52.434;13.206;2024-03-08T02:38:03;28.10;;;15.95;;
20306;SDS011;10312;52.434;13.206;2024-03-08T02:40:30;31.13;;;16.55;;
20306;SDS011;10312;52.434;13.206;2024-03-08T02:42:57;28.77;;;15.65;;
20306;SDS011;10312;52.434;13.206;2024-03-08T02:45:25;30.70;;;15.68;;
20306;SDS011;10312;52.434;13.206;2024-03-08T02:47:52;29.80;;;16.00;;
20306;SDS011;10312;52.434;13.206;2024-03-08T02:50:19;30.33;;;16.58;;
20306;SDS011;10312;52.434;13.206;2024-03-08T02:52:46;28.45;;;15.82;;
20306;SDS011;10312;52.434;13.206;2024-03-08T02:55:13;32.15;;;17.23;;
20306;SDS011;10312;52.434;13.206;2024-03-08T02:57:43;29.98;;;15.80;;
20306;SDS011;10312;52.434;13.206;2024-03-08T03:00:10;29.35;;;16.35;;
20306;SDS011;10312;52.434;13.206;2024-03-08T03:02:38;28.52;;;16.02;;
20306;SDS011;10312;52.434;13.206;2024-03-08T03:05:05;29.02;;;15.98;;
20306;SDS011;10312;52.434;13.206;2024-03-08T03:07:32;31.92;;;16.13;;
20306;SDS011;10312;52.434;13.206;2024-03-08T03:10:01;27.80;;;16.40;;
20306;SDS011;10312;52.434;13.206;2024-03-08T03:12:30;29.50;;;15.95;;
20306;SDS011;10312;52.434;13.206;2024-03-08T03:14:57;29.50;;;16.05;;
20306;SDS011;10312;52.434;13.206;2024-03-08T03:17:24;28.00;;;15.82;;
20306;SDS011;10312;52.434;13.206;2024-03-08T03:19:54;29.42;;;16.85;;
20306;SDS011;10312;52.434;13.206;2024-03-08T03:22:22;30.27;;;15.85;;
20306;SDS011;10312;52.434;13.206;2024-03-08T03:24:49;30.42;;;16.75;;
20306;SDS011;10312;52.434;13.206;2024-03-08T03:27:19;28.98;;;16.15;;
20306;SDS011;10312;52.434;13.206;2024-03-08T03:29:46;28.52;;;16.52;;
20306;SDS011;10312;52.434;13.206;2024-03-08T03:32:14;34.30;;;17.35;;
20306;SDS011;10312;52.434;13.206;2024-03-08T03:34:41;32.78;;;16.95;;
20306;SDS011;10312;52.434;13.206;2024-03-08T03:37:10;31.55;;;16.92;;
20306;SDS011;10312;52.434;13.206;2024-03-08T03:39:40;29.40;;;16.35;;
20306;SDS011;10312;52.434;13.206;2024-03-08T03:42:19;27.90;;;16.25;;
20306;SDS011;10312;52.434;13.206;2024-03-08T03:44:46;29.50;;;16.67;;
20306;SDS011;10312;52.434;13.206;2024-03-08T03:47:14;32.63;;;17.55;;
20306;SDS011;10312;52.434;13.206;2024-03-08T03:49:42;33.13;;;16.25;;
20306;SDS011;10312;52.434;13.206;2024-03-08T03:52:09;32.65;;;15.77;;
20306;SDS011;10312;52.434;13.206;2024-03-08T03:54:36;30.80;;;16.55;;
20306;SDS011;10312;52.434;13.206;2024-03-08T03:57:03;30.05;;;15.50;;
20306;SDS011;10312;52.434;13.206;2024-03-08T03:59:30;34.35;;;16.75;;
20306;SDS011;10312;52.434;13.206;2024-03-08T04:01:58;29.00;;;16.15;;
20306;SDS011;10312;52.434;13.206;2024-03-08T04:04:24;35.28;;;17.02;;
20306;SDS011;10312;52.434;13.206;2024-03-08T04:06:52;30.52;;;16.05;;
20306;SDS011;10312;52.434;13.206;2024-03-08T04:09:19;29.30;;;16.52;;
20306;SDS011;10312;52.434;13.206;2024-03-08T04:11:47;30.42;;;16.13;;
20306;SDS011;10312;52.434;13.206;2024-03-08T04:14:14;34.58;;;16.63;;
20306;SDS011;10312;52.434;13.206;2024-03-08T04:16:41;31.17;;;16.48;;
20306;SDS011;10312;52.434;13.206;2024-03-08T04:19:08;32.20;;;17.55;;
20306;SDS011;10312;52.434;13.206;2024-03-08T04:21:36;33.75;;;17.73;;
20306;SDS011;10312;52.434;13.206;2024-03-08T04:24:03;34.60;;;17.42;;
20306;SDS011;10312;52.434;13.206;2024-03-08T04:26:30;30.95;;;16.63;;
20306;SDS011;10312;52.434;13.206;2024-03-08T04:28:58;32.03;;;17.20;;
20306;SDS011;10312;52.434;13.206;2024-03-08T04:31:25;31.38;;;16.70;;
20306;SDS011;10312;52.434;13.206;2024-03-08T04:33:53;35.67;;;17.75;;
20306;SDS011;10312;52.434;13.206;2024-03-08T04:36:20;31.77;;;17.20;;
20306;SDS011;10312;52.434;13.206;2024-03-08T04:38:47;33.00;;;17.30;;
20306;SDS011;10312;52.434;13.206;2024-03-08T04:41:14;30.10;;;17.00;;
20306;SDS011;10312;52.434;13.206;2024-03-08T04:43:42;29.38;;;16.35;;
20306;SDS011;10312;52.434;13.206;2024-03-08T04:46:09;32.35;;;16.95;;
20306;SDS011;10312;52.434;13.206;2024-03-08T04:48:35;30.40;;;16.20;;
20306;SDS011;10312;52.434;13.206;2024-03-08T04:51:03;31.52;;;17.08;;
20306;SDS011;10312;52.434;13.206;2024-03-08T04:53:30;31.52;;;16.98;;
20306;SDS011;10312;52.434;13.206;2024-03-08T04:55:59;29.80;;;16.77;;
20306;SDS011;10312;52.434;13.206;2024-03-08T04:58:29;33.47;;;17.10;;
20306;SDS011;10312;52.434;13.206;2024-03-08T05:00:56;29.42;;;16.60;;
20306;SDS011;10312;52.434;13.206;2024-03-08T05:03:24;32.35;;;17.20;;
20306;SDS011;10312;52.434;13.206;2024-03-08T05:05:53;30.40;;;17.05;;
20306;SDS011;10312;52.434;13.206;2024-03-08T05:08:20;30.80;;;17.75;;
20306;SDS011;10312;52.434;13.206;2024-03-08T05:10:46;29.30;;;16.48;;
20306;SDS011;10312;52.434;13.206;2024-03-08T05:13:13;32.45;;;16.85;;
20306;SDS011;10312;52.434;13.206;2024-03-08T05:15:40;31.42;;;17.55;;
20306;SDS011;10312;52.434;13.206;2024-03-08T05:18:07;35.53;;;18.38;;
20306;SDS011;10312;52.434;13.206;2024-03-08T05:20:35;35.28;;;17.77;;
20306;SDS011;10312;52.434;13.206;2024-03-08T05:23:03;31.63;;;17.30;;
20306;SDS011;10312;52.434;13.206;2024-03-08T05:25:31;32.08;;;18.65;;
20306;SDS011;10312;52.434;13.206;2024-03-08T05:27:58;31.95;;;17.85;;
20306;SDS011;10312;52.434;13.206;2024-03-08T05:30:25;32.95;;;18.83;;
20306;SDS011;10312;52.434;13.206;2024-03-08T05:32:52;35.22;;;17.95;;
20306;SDS011;10312;52.434;13.206;2024-03-08T05:35:19;35.55;;;18.73;;
20306;SDS011;10312;52.434;13.206;2024-03-08T05:37:47;32.65;;;17.67;;
20306;SDS011;10312;52.434;13.206;2024-03-08T05:40:14;34.65;;;19.05;;
20306;SDS011;10312;52.434;13.206;2024-03-08T05:42:45;34.58;;;19.13;;
20306;SDS011;10312;52.434;13.206;2024-03-08T05:45:12;32.70;;;18.60;;
20306;SDS011;10312;52.434;13.206;2024-03-08T05:47:39;33.83;;;18.70;;
20306;SDS011;10312;52.434;13.206;2024-03-08T05:50:06;33.28;;;18.80;;
20306;SDS011;10312;52.434;13.206;2024-03-08T05:52:37;37.63;;;19.55;;
20306;SDS011;10312;52.434;13.206;2024-03-08T05:55:05;36.03;;;18.40;;
20306;SDS011;10312;52.434;13.206;2024-03-08T05:57:34;34.75;;;18.88;;
20306;SDS011;10312;52.434;13.206;2024-03-08T06:00:07;36.40;;;20.17;;
20306;SDS011;10312;52.434;13.206;2024-03-08T06:02:38;37.80;;;20.02;;
20306;SDS011;10312;52.434;13.206;2024-03-08T06:05:09;37.70;;;19.63;;
20306;SDS011;10312;52.434;13.206;2024-03-08T06:07:38;44.40;;;21.00;;
20306;SDS011;10312;52.434;13.206;2024-03-08T06:10:09;37.28;;;20.30;;
20306;SDS011;10312;52.434;13.206;2024-03-08T06:12:37;37.13;;;19.58;;
20306;SDS011;10312;52.434;13.206;2024-03-08T06:15:08;37.95;;;19.50;;
20306;SDS011;10312;52.434;13.206;2024-03-08T06:17:36;37.83;;;20.33;;
20306;SDS011;10312;52.434;13.206;2024-03-08T06:20:03;40.88;;;21.48;;
20306;SDS011;10312;52.434;13.206;2024-03-08T06:22:37;36.88;;;19.33;;
20306;SDS011;10312;52.434;13.206;2024-03-08T06:25:07;36.25;;;20.15;;
20306;SDS011;10312;52.434;13.206;2024-03-08T06:27:37;37.75;;;20.75;;
20306;SDS011;10312;52.434;13.206;2024-03-08T06:30:05;37.60;;;20.83;;
20306;SDS011;10312;52.434;13.206;2024-03-08T06:32:32;40.20;;;22.58;;
20306;SDS011;10312;52.434;13.206;2024-03-08T06:35:02;42.65;;;21.70;;
20306;SDS011;10312;52.434;13.206;2024-03-08T06:37:33;40.00;;;21.58;;
20306;SDS011;10312;52.434;13.206;2024-03-08T06:40:00;41.53;;;21.20;;
20306;SDS011;10312;52.434;13.206;2024-03-08T06:42:28;41.20;;;21.80;;
20306;SDS011;10312;52.434;13.206;2024-03-08T06:44:55;39.90;;;21.08;;
20306;SDS011;10312;52.434;13.206;2024-03-08T06:47:26;39.92;;;20.75;;
20306;SDS011;10312;52.434;13.206;2024-03-08T06:49:57;43.47;;;22.40;;
20306;SDS011;10312;52.434;13.206;2024-03-08T06:52:24;41.88;;;22.67;;
20306;SDS011;10312;52.434;13.206;2024-03-08T06:54:54;38.47;;;21.10;;
20306;SDS011;10312;52.434;13.206;2024-03-08T06:57:21;44.58;;;22.42;;
20306;SDS011;10312;52.434;13.206;2024-03-08T06:59:54;42.97;;;22.73;;
20306;SDS011;10312;52.434;13.206;2024-03-08T07:02:21;41.13;;;21.20;;
20306;SDS011;10312;52.434;13.206;2024-03-08T07:04:51;41.40;;;22.77;;
20306;SDS011;10312;52.434;13.206;2024-03-08T07:07:20;42.03;;;21.75;;
20306;SDS011;10312;52.434;13.206;2024-03-08T07:09:47;42.85;;;21.52;;
20306;SDS011;10312;52.434;13.206;2024-03-08T07:12:15;41.65;;;22.52;;
20306;SDS011;10312;52.434;13.206;2024-03-08T07:14:43;43.30;;;21.20;;
20306;SDS011;10312;52.434;13.206;2024-03-08T07:17:12;38.35;;;22.05;;
20306;SDS011;10312;52.434;13.206;2024-03-08T07:19:39;38.28;;;20.83;;
20306;SDS011;10312;52.434;13.206;2024-03-08T07:22:06;42.88;;;22.15;;
20306;SDS011;10312;52.434;13.206;2024-03-08T07:24:35;39.53;;;21.80;;
20306;SDS011;10312;52.434;13.206;2024-03-08T07:27:03;42.35;;;22.17;;
20306;SDS011;10312;52.434;13.206;2024-03-08T07:29:34;36.80;;;20.45;;
20306;SDS011;10312;52.434;13.206;2024-03-08T07:32:01;42.25;;;21.77;;
20306;SDS011;10312;52.434;13.206;2024-03-08T07:34:38;34.05;;;20.17;;
20306;SDS011;10312;52.434;13.206;2024-03-08T07:37:06;39.63;;;20.33;;
20306;SDS011;10312;52.434;13.206;2024-03-08T07:39:37;39.97;;;21.85;;
20306;SDS011;10312;52.434;13.206;2024-03-08T07:42:05;39.72;;;22.23;;
20306;SDS011;10312;52.434;13.206;2024-03-08T07:44:34;38.55;;;20.73;;
20306;SDS011;10312;52.434;13.206;2024-03-08T07:47:00;39.92;;;20.25;;
20306;SDS011;10312;52.434;13.206;2024-03-08T07:49:27;38.10;;;20.50;;
20306;SDS011;10312;52.434;13.206;2024-03-08T07:51:54;35.85;;;19.65;;
20306;SDS011;10312;52.434;13.206;2024-03-08T07:54:21;40.05;;;21.50;;
20306;SDS011;10312;52.434;13.206;2024-03-08T07:56:48;36.50;;;20.45;;
20306;SDS011;10312;52.434;13.206;2024-03-08T07:59:17;36.30;;;20.60;;
20306;SDS011;10312;52.434;13.206;2024-03-08T08:01:45;36.95;;;20.33;;
20306;SDS011;10312;52.434;13.206;2024-03-08T08:04:13;38.03;;;20.55;;
20306;SDS011;10312;52.434;13.206;2024-03-08T08:06:42;36.15;;;20.48;;
20306;SDS011;10312;52.434;13.206;2024-03-08T08:09:09;37.35;;;21.17;;
20306;SDS011;10312;52.434;13.206;2024-03-08T08:11:42;34.67;;;19.48;;
20306;SDS011;10312;52.434;13.206;2024-03-08T08:14:09;33.63;;;19.83;;
20306;SDS011;10312;52.434;13.206;2024-03-08T08:16:37;37.80;;;20.42;;
20306;SDS011;10312;52.434;13.206;2024-03-08T08:19:04;39.65;;;20.67;;
20306;SDS011;10312;52.434;13.206;2024-03-08T08:21:36;31.88;;;18.95;;
20306;SDS011;10312;52.434;13.206;2024-03-08T08:24:04;35.10;;;19.52;;
20306;SDS011;10312;52.434;13.206;2024-03-08T08:26:31;36.08;;;19.45;;
20306;SDS011;10312;52.434;13.206;2024-03-08T08:29:05;35.30;;;19.17;;
20306;SDS011;10312;52.434;13.206;2024-03-08T08:31:32;35.42;;;19.35;;
20306;SDS011;10312;52.434;13.206;2024-03-08T08:34:00;33.45;;;19.50;;
20306;SDS011;10312;52.434;13.206;2024-03-08T08:36:27;35.15;;;18.42;;
20306;SDS011;10312;52.434;13.206;2024-03-08T08:38:56;34.10;;;18.63;;
20306;SDS011;10312;52.434;13.206;2024-03-08T08:41:25;32.97;;;18.50;;
20306;SDS011;10312;52.434;13.206;2024-03-08T08:43:55;30.50;;;17.92;;
20306;SDS011;10312;52.434;13.206;2024-03-08T08:46:39;32.50;;;18.40;;
20306;SDS011;10312;52.434;13.206;2024-03-08T08:49:07;30.25;;;17.40;;
20306;SDS011;10312;52.434;13.206;2024-03-08T08:51:38;34.95;;;18.35;;
20306;SDS011;10312;52.434;13.206;2024-03-08T08:54:06;29.80;;;17.40;;
20306;SDS011;10312;52.434;13.206;2024-03-08T08:56:38;26.23;;;16.25;;
20306;SDS011;10312;52.434;13.206;2024-03-08T08:59:05;28.00;;;16.13;;
20306;SDS011;10312;52.434;13.206;2024-03-08T09:01:33;26.40;;;15.48;;
20306;SDS011;10312;52.434;13.206;2024-03-08T09:04:00;25.73;;;15.63;;
20306;SDS011;10312;52.434;13.206;2024-03-08T09:06:27;27.70;;;16.10;;
20306;SDS011;10312;52.434;13.206;2024-03-08T09:08:54;26.92;;;16.38;;
20306;SDS011;10312;52.434;13.206;2024-03-08T09:11:21;26.20;;;15.50;;
20306;SDS011;10312;52.434;13.206;2024-03-08T09:13:49;26.48;;;16.13;;
20306;SDS011;10312;52.434;13.206;2024-03-08T09:16:16;26.23;;;16.08;;
20306;SDS011;10312;52.434;13.206;2024-03-08T09:18:43;28.75;;;16.27;;
20306;SDS011;10312;52.434;13.206;2024-03-08T09:21:11;27.27;;;15.00;;
20306;SDS011;10312;52.434;13.206;2024-03-08T09:23:40;26.20;;;15.70;;
20306;SDS011;10312;52.434;13.206;2024-03-08T09:26:08;23.70;;;13.88;;
20306;SDS011;10312;52.434;13.206;2024-03-08T09:28:51;26.92;;;15.07;;
20306;SDS011;10312;52.434;13.206;2024-03-08T09:31:18;23.08;;;14.05;;
20306;SDS011;10312;52.434;13.206;2024-03-08T09:33:45;23.60;;;14.27;;
20306;SDS011;10312;52.434;13.206;2024-03-08T09:36:12;24.75;;;14.65;;
20306;SDS011;10312;52.434;13.206;2024-03-08T09:38:40;25.08;;;14.88;;
20306;SDS011;10312;52.434;13.206;2024-03-08T09:41:09;24.65;;;14.75;;
20306;SDS011;10312;52.434;13.206;2024-03-08T09:43:37;24.42;;;14.40;;
20306;SDS011;10312;52.434;13.206;2024-03-08T09:46:05;22.13;;;13.85;;
20306;SDS011;10312;52.434;13.206;2024-03-08T09:48:34;22.52;;;13.77;;
20306;SDS011;10312;52.434;13.206;2024-03-08T09:51:01;28.55;;;15.45;;
20306;SDS011;10312;52.434;13.206;2024-03-08T09:53:30;21.08;;;14.10;;
20306;SDS011;10312;52.434;13.206;2024-03-08T09:55:57;25.65;;;14.40;;
20306;SDS011;10312;52.434;13.206;2024-03-08T09:58:24;25.25;;;14.32;;
20306;SDS011;10312;52.434;13.206;2024-03-08T10:01:00;22.45;;;14.18;;
20306;SDS011;10312;52.434;13.206;2024-03-08T10:03:32;24.98;;;14.05;;
20306;SDS011;10312;52.434;13.206;2024-03-08T10:05:59;25.23;;;14.60;;
20306;SDS011;10312;52.434;13.206;2024-03-08T10:08:27;23.35;;;14.50;;
20306;SDS011;10312;52.434;13.206;2024-03-08T10:10:57;23.27;;;14.02;;
20306;SDS011;10312;52.434;13.206;2024-03-08T10:13:25;23.70;;;14.68;;
20306;SDS011;10312;52.434;13.206;2024-03-08T10:15:56;23.73;;;14.85;;
20306;SDS011;10312;52.434;13.206;2024-03-08T10:18:23;25.83;;;14.43;;
20306;SDS011;10312;52.434;13.206;2024-03-08T10:21:24;22.23;;;13.13;;
20306;SDS011;10312;52.434;13.206;2024-03-08T10:23:43;24.20;;;13.63;;
20306;SDS011;10312;52.434;13.206;2024-03-08T10:26:17;22.08;;;13.75;;
20306;SDS011;10312;52.434;13.206;2024-03-08T10:28:47;21.42;;;13.32;;
20306;SDS011;10312;52.434;13.206;2024-03-08T10:31:16;20.50;;;12.68;;
20306;SDS011;10312;52.434;13.206;2024-03-08T10:33:48;23.70;;;13.00;;
20306;SDS011;10312;52.434;13.206;2024-03-08T10:36:18;23.40;;;13.88;;
20306;SDS011;10312;52.434;13.206;2024-03-08T10:38:46;23.25;;;13.73;;
20306;SDS011;10312;52.434;13.206;2024-03-08T10:41:15;22.13;;;13.93;;
20306;SDS011;10312;52.434;13.206;2024-03-08T10:49:32;22.02;;;12.50;;
20306;SDS011;10312;52.434;13.206;2024-03-08T10:52:06;19.40;;;11.90;;
20306;SDS011;10312;52.434;13.206;2024-03-08T10:54:38;19.65;;;11.63;;
20306;SDS011;10312;52.434;13.206;2024-03-08T10:57:10;21.27;;;12.07;;
20306;SDS011;10312;52.434;13.206;2024-03-08T10:59:39;22.80;;;12.30;;
20306;SDS011;10312;52.434;13.206;2024-03-08T11:02:06;21.85;;;13.15;;
20306;SDS011;10312;52.434;13.206;2024-03-08T11:04:33;20.10;;;11.82;;
20306;SDS011;10312;52.434;13.206;2024-03-08T11:07:00;19.35;;;12.00;;
20306;SDS011;10312;52.434;13.206;2024-03-08T11:09:35;34.35;;;12.27;;
20306;SDS011;10312;52.434;13.206;2024-03-08T11:15:11;20.20;;;12.27;;
20306;SDS011;10312;52.434;13.206;2024-03-08T11:17:47;19.83;;;12.48;;
20306;SDS011;10312;52.434;13.206;2024-03-08T11:20:15;19.52;;;12.48;;
20306;SDS011;10312;52.434;13.206;2024-03-08T11:22:48;17.70;;;10.77;;
20306;SDS011;10312;52.434;13.206;2024-03-08T11:25:37;17.92;;;11.23;;
20306;SDS011;10312;52.434;13.206;2024-03-08T11:28:14;19.05;;;12.13;;
20306;SDS011;10312;52.434;13.206;2024-03-08T11:33:30;17.90;;;11.55;;
20306;SDS011;10312;52.434;13.206;2024-03-08T11:38:41;17.20;;;11.40;;
20306;SDS011;10312;52.434;13.206;2024-03-08T11:41:10;16.75;;;12.02;;
20306;SDS011;10312;52.434;13.206;2024-03-08T11:43:45;17.58;;;11.95;;
20306;SDS011;10312;52.434;13.206;2024-03-08T11:46:13;17.50;;;11.82;;
20306;SDS011;10312;52.434;13.206;2024-03-08T11:48:41;18.45;;;11.23;;
20306;SDS011;10312;52.434;13.206;2024-03-08T11:51:14;17.58;;;11.05;;
20306;SDS011;10312;52.434;13.206;2024-03-08T11:53:41;16.17;;;10.88;;
20306;SDS011;10312;52.434;13.206;2024-03-08T11:56:13;18.52;;;11.25;;
20306;SDS011;10312;52.434;13.206;2024-03-08T11:58:41;17.63;;;11.98;;
20306;SDS011;10312;52.434;13.206;2024-03-08T12:01:09;17.00;;;10.93;;
20306;SDS011;10312;52.434;13.206;2024-03-08T12:03:40;14.82;;;10.77;;
20306;SDS011;10312;52.434;13.206;2024-03-08T12:06:12;15.40;;;10.38;;
20306;SDS011;10312;52.434;13.206;2024-03-08T12:08:40;19.48;;;10.90;;
20306;SDS011;10312;52.434;13.206;2024-03-08T12:11:07;15.40;;;9.70;;
20306;SDS011;10312;52.434;13.206;2024-03-08T12:13:37;16.42;;;10.30;;
20306;SDS011;10312;52.434;13.206;2024-03-08T12:16:04;17.85;;;10.88;;
20306;SDS011;10312;52.434;13.206;2024-03-08T12:18:35;15.63;;;10.63;;
20306;SDS011;10312;52.434;13.206;2024-03-08T12:21:05;15.57;;;9.65;;
20306;SDS011;10312;52.434;13.206;2024-03-08T12:23:37;15.30;;;9.50;;
20306;SDS011;10312;52.434;13.206;2024-03-08T12:28:46;13.13;;;8.77;;
20306;SDS011;10312;52.434;13.206;2024-03-08T12:31:15;12.90;;;8.45;;
20306;SDS011;10312;52.434;13.206;2024-03-08T12:36:23;13.20;;;8.65;;
20306;SDS011;10312;52.434;13.206;2024-03-08T12:38:50;12.95;;;8.45;;
20306;SDS011;10312;52.434;13.206;2024-03-08T12:41:18;13.18;;;8.43;;
20306;SDS011;10312;52.434;13.206;2024-03-08T12:43:45;13.60;;;8.90;;
20306;SDS011;10312;52.434;13.206;2024-03-08T12:46:21;13.95;;;8.68;;
20306;SDS011;10312;52.434;13.206;2024-03-08T12:48:48;16.88;;;8.85;;
20306;SDS011;10312;52.434;13.206;2024-03-08T12:51:16;17.75;;;9.23;;
20306;SDS011;10312;52.434;13.206;2024-03-08T12:53:45;14.23;;;8.30;;
20306;SDS011;10312;52.434;13.206;2024-03-08T12:56:14;12.75;;;8.45;;
20306;SDS011;10312;52.434;13.206;2024-03-08T12:58:47;15.57;;;8.90;;
20306;SDS011;10312;52.434;13.206;2024-03-08T13:01:14;13.40;;;8.35;;
20306;SDS011;10312;52.434;13.206;2024-03-08T13:03:41;14.90;;;8.65;;
20306;SDS011;10312;52.434;13.206;2024-03-08T13:06:10;12.48;;;8.63;;
20306;SDS011;10312;52.434;13.206;2024-03-08T13:08:37;13.43;;;8.65;;
20306;SDS011;10312;52.434;13.206;2024-03-08T13:11:10;13.60;;;8.32;;
20306;SDS011;10312;52.434;13.206;2024-03-08T13:13:42;15.02;;;10.25;;
20306;SDS011;10312;52.434;13.206;2024-03-08T13:16:10;15.93;;;9.70;;
20306;SDS011;10312;52.434;13.206;2024-03-08T13:18:42;15.13;;;10.10;;
20306;SDS011;10312;52.434;13.206;2024-03-08T13:21:09;14.45;;;9.15;;
20306;SDS011;10312;52.434;13.206;2024-03-08T13:23:37;13.70;;;9.32;;
20306;SDS011;10312;52.434;13.206;2024-03-08T13:26:08;13.00;;;8.68;;
20306;SDS011;10312;52.434;13.206;2024-03-08T13:28:36;16.35;;;9.00;;
20306;SDS011;10312;52.434;13.206;2024-03-08T13:31:04;14.77;;;9.15;;
20306;SDS011;10312;52.434;13.206;2024-03-08T13:33:37;13.75;;;9.27;;
20306;SDS011;10312;52.434;13.206;2024-03-08T13:36:06;13.65;;;9.20;;
20306;SDS011;10312;52.434;13.206;2024-03-08T13:38:38;12.70;;;8.63;;
20306;SDS011;10312;52.434;13.206;2024-03-08T13:41:05;13.70;;;8.90;;
20306;SDS011;10312;52.434;13.206;2024-03-08T13:43:32;12.25;;;8.65;;
20306;SDS011;10312;52.434;13.206;2024-03-08T13:46:02;14.77;;;9.73;;
20306;SDS011;10312;52.434;13.206;2024-03-08T13:48:30;12.82;;;9.32;;
20306;SDS011;10312;52.434;13.206;2024-03-08T13:51:00;13.77;;;9.60;;
20306;SDS011;10312;52.434;13.206;2024-03-08T13:53:28;15.77;;;10.63;;
20306;SDS011;10312;52.434;13.206;2024-03-08T13:55:55;18.35;;;11.60;;
20306;SDS011;10312;52.434;13.206;2024-03-08T13:58:23;20.38;;;12.18;;
20306;SDS011;10312;52.434;13.206;2024-03-08T14:00:50;17.75;;;11.50;;
20306;SDS011;10312;52.434;13.206;2024-03-08T14:03:19;16.80;;;11.77;;
20306;SDS011;10312;52.434;13.206;2024-03-08T14:05:47;21.52;;;13.30;;
20306;SDS011;10312;52.434;13.206;2024-03-08T14:08:15;19.10;;;12.70;;
20306;SDS011;10312;52.434;13.206;2024-03-08T14:10:43;20.27;;;12.80;;
20306;SDS011;10312;52.434;13.206;2024-03-08T14:13:13;19.20;;;10.80;;
20306;SDS011;10312;52.434;13.206;2024-03-08T14:15:43;17.88;;;11.10;;
20306;SDS011;10312;52.434;13.206;2024-03-08T14:18:13;18.67;;;11.55;;
20306;SDS011;10312;52.434;13.206;2024-03-08T14:20:40;18.55;;;11.77;;
20306;SDS011;10312;52.434;13.206;2024-03-08T14:23:08;17.73;;;10.45;;
20306;SDS011;10312;52.434;13.206;2024-03-08T14:25:35;17.33;;;10.68;;
20306;SDS011;10312;52.434;13.206;2024-03-08T14:28:02;19.98;;;10.70;;
20306;SDS011;10312;52.434;13.206;2024-03-08T14:30:34;17.30;;;10.68;;
20306;SDS011;10312;52.434;13.206;2024-03-08T14:33:02;15.93;;;10.32;;
20306;SDS011;10312;52.434;13.206;2024-03-08T14:35:29;16.73;;;10.52;;
20306;SDS011;10312;52.434;13.206;2024-03-08T14:37:56;18.27;;;10.50;;
20306;SDS011;10312;52.434;13.206;2024-03-08T14:40:24;17.52;;;10.13;;
20306;SDS011;10312;52.434;13.206;2024-03-08T14:42:53;20.88;;;11.27;;